createdAt,value
2022-10-09T00:03:47.079Z,90.88
2022-10-09T00:06:18.187Z,90.77
2022-10-09T00:08:45.599Z,90.70
2022-10-09T00:11:16.342Z,90.91
2022-10-09T00:13:44.336Z,90.78
2022-10-09T00:16:15.025Z,90.77
2022-10-09T00:18:42.590Z,90.80
2022-10-09T00:21:20.461Z,90.39
2022-10-09T00:23:48.830Z,90.82
2022-10-09T00:26:16.564Z,90.57
2022-10-09T00:28:44.027Z,90.83
2022-10-09T00:31:12.322Z,90.99
2022-10-09T00:33:39.844Z,90.40
2022-10-09T00:36:11.382Z,90.72
2022-10-09T00:38:39.090Z,91.06
2022-10-09T00:41:07.456Z,91.39
2022-10-09T00:43:45.296Z,90.49
2022-10-09T00:46:21.155Z,91.16
2022-10-09T00:48:58.635Z,91.08
2022-10-09T00:51:26.153Z,90.87
2022-10-09T00:53:53.478Z,91.54
2022-10-09T00:56:20.867Z,91.62
2022-10-09T00:58:52.871Z,91.83
2022-10-09T01:01:20.657Z,91.98
2022-10-09T01:03:47.969Z,91.94
2022-10-09T01:06:27.298Z,91.77
2022-10-09T01:09:06.574Z,92.26
2022-10-09T01:14:32.583Z,91.77
2022-10-09T01:28:11.872Z,91.89
2022-10-09T01:30:39.194Z,91.82
2022-10-09T01:33:07.231Z,91.90
2022-10-09T01:35:35.633Z,91.79
2022-10-09T01:38:04.177Z,91.46
2022-10-09T01:40:31.709Z,91.61
2022-10-09T01:43:00.004Z,91.74
2022-10-09T01:45:39.565Z,91.57
2022-10-09T01:48:12.881Z,91.96
2022-10-09T01:50:46.125Z,91.85
2022-10-09T01:53:19.349Z,92.12
2022-10-09T01:56:14.916Z,91.51
2022-10-09T01:58:48.571Z,91.59
2022-10-09T02:01:25.060Z,91.54
2022-10-09T02:03:53.618Z,91.59
2022-10-09T02:06:21.526Z,92.05
2022-10-09T02:08:53.792Z,92.03
2022-10-09T02:11:21.735Z,91.87
2022-10-09T02:13:53.256Z,91.95
2022-10-09T02:21:50.304Z,92.83
2022-10-09T02:24:22.963Z,92.19
2022-10-09T02:26:53.283Z,92.26
2022-10-09T02:29:21.313Z,91.84
2022-10-09T02:31:48.683Z,92.00
2022-10-09T02:34:19.758Z,92.17
2022-10-09T02:36:48.045Z,92.06
2022-10-09T02:39:15.738Z,92.50
2022-10-09T02:41:43.298Z,91.95
2022-10-09T02:44:10.666Z,92.11
2022-10-09T02:46:38.762Z,91.65
2022-10-09T02:49:06.926Z,91.72
2022-10-09T02:51:34.662Z,91.80
2022-10-09T02:54:02.225Z,91.37
2022-10-09T02:56:30.078Z,91.31
2022-10-09T02:58:57.595Z,91.54
2022-10-09T03:01:25.683Z,91.11
2022-10-09T03:03:53.759Z,91.24
2022-10-09T03:06:23.917Z,91.19
2022-10-09T03:08:52.797Z,91.73
2022-10-09T03:11:22.369Z,90.87
2022-10-09T03:13:50.449Z,91.49
2022-10-09T03:16:20.910Z,90.98
2022-10-09T03:18:49.736Z,91.53
2022-10-09T03:21:20.280Z,91.33
2022-10-09T03:23:48.287Z,91.16
2022-10-09T03:26:18.046Z,90.65
2022-10-09T03:28:48.245Z,91.16
2022-10-09T03:31:33.384Z,91.18
2022-10-09T03:34:04.986Z,91.68
2022-10-09T03:36:32.968Z,91.00
2022-10-09T03:39:00.236Z,91.29
2022-10-09T03:41:27.552Z,91.30
2022-10-09T03:43:54.872Z,91.19
2022-10-09T03:46:22.131Z,90.85
2022-10-09T03:48:49.460Z,91.10
2022-10-09T03:51:16.820Z,90.92
2022-10-09T03:53:44.139Z,91.09
2022-10-09T03:56:11.473Z,91.18
2022-10-09T03:58:38.878Z,90.84
2022-10-09T04:01:06.247Z,91.03
2022-10-09T04:03:33.859Z,91.16
2022-10-09T04:06:01.268Z,90.99
2022-10-09T04:08:28.550Z,91.23
2022-10-09T04:11:00.344Z,91.22
2022-10-09T04:13:27.898Z,90.98
2022-10-09T04:15:56.097Z,90.77
2022-10-09T04:18:23.711Z,91.68
2022-10-09T04:20:53.089Z,91.41
2022-10-09T04:23:22.093Z,91.23
2022-10-09T04:25:53.703Z,92.03
2022-10-09T04:28:21.753Z,91.81
2022-10-09T04:30:49.176Z,91.88
2022-10-09T04:33:16.483Z,92.06
2022-10-09T04:35:46.033Z,92.41
2022-10-09T04:38:13.644Z,92.50
2022-10-09T04:40:42.248Z,92.91
2022-10-09T04:43:09.847Z,93.12
2022-10-09T04:45:41.553Z,93.45
2022-10-09T04:48:08.904Z,92.98
2022-10-09T04:50:39.272Z,93.09
2022-10-09T04:53:06.602Z,93.40
2022-10-09T04:55:33.942Z,92.85
2022-10-09T04:58:01.241Z,93.29
2022-10-09T05:00:28.603Z,93.05
2022-10-09T05:02:55.948Z,93.18
2022-10-09T05:05:23.272Z,93.12
2022-10-09T05:07:50.619Z,93.19
2022-10-09T05:10:18.086Z,93.24
2022-10-09T05:12:45.588Z,92.84
2022-10-09T05:15:13.613Z,93.19
2022-10-09T05:17:40.956Z,93.10
2022-10-09T05:20:08.662Z,92.65
2022-10-09T05:22:35.995Z,92.60
2022-10-09T05:25:04.356Z,92.47
2022-10-09T05:27:31.666Z,92.47
2022-10-09T05:29:58.982Z,92.61
2022-10-09T05:32:26.373Z,92.64
2022-10-09T05:34:53.966Z,91.74
2022-10-09T05:37:21.289Z,92.03
2022-10-09T05:39:48.663Z,91.86
2022-10-09T05:42:16.104Z,91.22
2022-10-09T05:44:43.415Z,90.96
2022-10-09T05:47:10.710Z,91.75
2022-10-09T05:49:38.083Z,90.91
2022-10-09T05:52:05.423Z,91.65
2022-10-09T05:54:32.780Z,90.83
2022-10-09T05:57:00.118Z,90.79
2022-10-09T05:59:27.605Z,90.41
2022-10-09T06:01:55.123Z,89.10
2022-10-09T06:04:24.665Z,88.93
2022-10-09T06:06:52.418Z,89.16
2022-10-09T06:09:23.451Z,89.47
2022-10-09T06:11:51.671Z,89.26
2022-10-09T06:14:22.387Z,89.45
2022-10-09T06:16:50.767Z,88.41
2022-10-09T06:19:20.087Z,88.46
2022-10-09T06:21:48.065Z,88.22
2022-10-09T06:24:27.266Z,87.94
2022-10-09T06:26:57.220Z,88.11
2022-10-09T06:29:25.026Z,87.57
2022-10-09T06:31:52.405Z,87.52
2022-10-09T06:34:19.804Z,87.05
2022-10-09T06:36:47.171Z,86.68
2022-10-09T06:39:14.961Z,85.71
2022-10-09T06:41:42.337Z,84.24
2022-10-09T06:44:29.699Z,84.13
2022-10-09T06:46:57.010Z,84.17
2022-10-09T06:49:24.454Z,83.95
2022-10-09T06:51:51.734Z,83.61
2022-10-09T06:54:19.069Z,82.91
2022-10-09T06:56:46.445Z,82.73
2022-10-09T06:59:13.869Z,82.73
2022-10-09T07:01:41.416Z,82.25
2022-10-09T07:04:13.233Z,82.78
2022-10-09T07:06:43.539Z,82.22
2022-10-09T07:09:14.213Z,81.24
2022-10-09T07:11:43.942Z,81.26
2022-10-09T07:14:13.594Z,80.81
2022-10-09T07:16:44.034Z,80.63
2022-10-09T07:19:12.701Z,79.19
2022-10-09T07:21:42.608Z,79.68
2022-10-09T07:24:11.087Z,79.92
2022-10-09T07:26:40.871Z,78.81
2022-10-09T07:29:09.884Z,79.05
2022-10-09T07:31:37.295Z,78.74
2022-10-09T07:34:06.498Z,78.38
2022-10-09T07:36:34.815Z,76.82
2022-10-09T07:39:02.938Z,76.89
2022-10-09T07:41:31.355Z,76.74
2022-10-09T07:43:59.024Z,75.17
2022-10-09T07:46:32.937Z,74.80
2022-10-09T07:49:01.809Z,74.88
2022-10-09T07:51:30.418Z,73.81
2022-10-09T07:53:58.484Z,74.27
2022-10-09T07:56:29.586Z,73.31
2022-10-09T07:58:59.256Z,73.41
2022-10-09T08:01:28.836Z,73.58
2022-10-09T08:03:57.412Z,73.42
2022-10-09T08:06:24.762Z,73.15
2022-10-09T08:08:53.881Z,73.40
2022-10-09T08:11:22.945Z,72.00
2022-10-09T08:13:51.133Z,71.77
2022-10-09T08:16:20.279Z,71.83
2022-10-09T08:18:48.275Z,72.17
2022-10-09T08:21:18.739Z,71.48
2022-10-09T08:23:46.505Z,70.91
2022-10-09T08:26:16.277Z,70.43
2022-10-09T08:28:44.187Z,70.33
2022-10-09T08:31:17.007Z,68.83
2022-10-09T08:33:44.513Z,67.82
2022-10-09T08:36:15.517Z,68.55
2022-10-09T08:38:47.862Z,68.21
2022-10-09T08:41:45.314Z,66.08
2022-10-09T08:44:43.152Z,64.72
2022-10-09T08:55:30.158Z,65.70
2022-10-09T08:58:01.282Z,64.54
2022-10-09T09:00:43.597Z,64.29
2022-10-09T09:06:07.590Z,61.28
2022-10-09T09:14:12.496Z,61.87
2022-10-09T09:19:43.369Z,61.22
2022-10-09T09:22:14.703Z,62.72
2022-10-09T09:24:51.377Z,60.76
2022-10-09T09:27:21.694Z,59.79
2022-10-09T09:32:50.361Z,58.28
2022-10-09T09:37:57.171Z,59.11
2022-10-09T09:40:37.544Z,59.23
2022-10-09T09:43:16.945Z,57.83
2022-10-09T09:45:45.452Z,57.96
2022-10-09T09:48:19.425Z,57.37
2022-10-09T09:51:05.041Z,56.49
2022-10-09T09:53:44.966Z,57.37
2022-10-09T09:56:12.423Z,58.17
2022-10-09T09:58:48.425Z,57.38
2022-10-09T10:04:05.060Z,58.42
2022-10-09T10:06:42.337Z,59.35
2022-10-09T10:09:15.146Z,58.82
2022-10-09T10:11:49.930Z,58.68
2022-10-09T10:14:18.368Z,59.20
2022-10-09T10:16:51.065Z,58.11
2022-10-09T10:19:27.020Z,57.29
2022-10-09T10:22:23.485Z,57.30
2022-10-09T10:24:53.525Z,57.39
2022-10-09T10:30:03.452Z,58.54
2022-10-09T10:35:17.797Z,55.60
2022-10-09T10:40:33.794Z,56.49
2022-10-09T10:46:05.443Z,56.98
2022-10-09T10:48:42.006Z,55.98
2022-10-09T10:56:49.447Z,54.42
2022-10-09T11:04:43.805Z,54.65
2022-10-09T11:13:14.043Z,53.62
2022-10-09T11:26:52.659Z,53.76
2022-10-09T11:29:51.217Z,54.52
2022-10-09T11:38:01.462Z,55.18
2022-10-09T11:40:34.460Z,55.77
2022-10-09T11:43:11.940Z,55.82
2022-10-09T11:51:59.374Z,54.65
2022-10-09T11:54:28.486Z,54.91
2022-10-09T11:59:37.227Z,53.15
2022-10-09T12:02:27.034Z,52.71
2022-10-09T12:04:55.741Z,54.05
2022-10-09T12:07:34.891Z,52.91
2022-10-09T12:10:07.589Z,54.16
2022-10-09T12:12:38.053Z,54.04
2022-10-09T12:15:27.131Z,53.64
2022-10-09T12:17:54.558Z,54.18
2022-10-09T12:20:27.231Z,54.64
2022-10-09T12:23:21.716Z,55.47
2022-10-09T12:25:46.822Z,55.81
2022-10-09T12:28:39.021Z,56.33
2022-10-09T12:31:21.125Z,55.50
2022-10-09T12:33:56.192Z,56.09
2022-10-09T12:36:27.051Z,56.50
2022-10-09T12:38:55.142Z,57.03
2022-10-09T12:41:30.343Z,56.85
2022-10-09T12:43:59.269Z,57.24
2022-10-09T12:46:32.212Z,56.72
2022-10-09T12:49:02.462Z,56.96
2022-10-09T12:51:32.713Z,57.33
2022-10-09T12:54:00.576Z,57.78
2022-10-09T12:56:32.414Z,58.10
2022-10-09T12:59:01.665Z,57.99
2022-10-09T13:01:29.838Z,58.13
2022-10-09T13:04:00.860Z,58.07
2022-10-09T13:06:36.549Z,58.46
2022-10-09T13:09:07.392Z,58.85
2022-10-09T13:11:40.786Z,59.15
2022-10-09T13:14:25.335Z,59.14
2022-10-09T13:16:53.000Z,59.17
2022-10-09T13:19:26.537Z,59.56
2022-10-09T13:24:38.301Z,60.10
2022-10-09T13:27:06.301Z,60.22
2022-10-09T13:29:34.381Z,60.76
2022-10-09T13:32:03.319Z,61.32
2022-10-09T13:34:30.916Z,61.32
2022-10-09T13:36:58.276Z,61.38
2022-10-09T13:39:25.899Z,62.04
2022-10-09T13:41:55.940Z,62.09
2022-10-09T13:44:23.728Z,62.44
2022-10-09T13:46:51.378Z,62.77
2022-10-09T13:49:18.861Z,63.05
2022-10-09T13:51:46.368Z,63.64
2022-10-09T13:54:13.925Z,63.74
2022-10-09T13:56:41.327Z,63.45
2022-10-09T13:59:08.689Z,63.56
2022-10-09T14:01:36.248Z,63.60
2022-10-09T14:04:04.088Z,64.08
2022-10-09T14:06:35.325Z,63.90
2022-10-09T14:09:04.352Z,64.25
2022-10-09T14:11:32.846Z,64.06
2022-10-09T14:14:00.318Z,63.51
2022-10-09T14:16:28.853Z,64.26
2022-10-09T14:18:59.629Z,64.54
2022-10-09T14:21:27.436Z,64.59
2022-10-09T14:23:57.082Z,64.86
2022-10-09T14:26:26.135Z,65.35
2022-10-09T14:28:54.560Z,65.44
2022-10-09T14:31:22.162Z,65.45
2022-10-09T14:33:49.922Z,65.19
2022-10-09T14:36:20.353Z,65.83
2022-10-09T14:38:48.817Z,65.87
2022-10-09T14:41:18.465Z,65.84
2022-10-09T14:43:46.863Z,66.46
2022-10-09T14:46:17.943Z,66.94
2022-10-09T14:48:48.793Z,67.08
2022-10-09T14:51:19.518Z,66.95
2022-10-09T14:53:47.921Z,67.33
2022-10-09T14:56:18.006Z,67.87
2022-10-09T14:58:45.932Z,68.09
2022-10-09T15:01:15.721Z,68.34
2022-10-09T15:03:44.109Z,68.49
2022-10-09T15:06:13.071Z,68.33
2022-10-09T15:08:42.272Z,68.67
2022-10-09T15:11:11.262Z,69.08
2022-10-09T15:13:39.749Z,68.80
2022-10-09T15:16:11.834Z,68.16
2022-10-09T15:18:40.278Z,68.35
2022-10-09T15:21:18.287Z,68.15
2022-10-09T15:23:46.927Z,68.20
2022-10-09T15:26:15.018Z,69.25
2022-10-09T15:28:44.827Z,69.17
2022-10-09T15:31:22.858Z,69.21
2022-10-09T15:33:52.458Z,69.68
2022-10-09T15:36:20.975Z,69.46
2022-10-09T15:38:48.832Z,69.47
2022-10-09T15:41:33.919Z,70.04
2022-10-09T15:44:04.561Z,70.73
2022-10-09T15:46:32.181Z,71.15
2022-10-09T15:48:59.601Z,71.19
2022-10-09T15:51:27.234Z,71.00
2022-10-09T15:53:57.658Z,71.07
2022-10-09T15:56:25.678Z,71.68
2022-10-09T15:58:55.509Z,71.73
2022-10-09T16:01:23.338Z,71.92
2022-10-09T16:03:51.498Z,72.28
2022-10-09T16:06:21.510Z,71.72
2022-10-09T16:08:50.768Z,71.66
2022-10-09T16:11:21.730Z,71.49
2022-10-09T16:13:53.613Z,72.35
2022-10-09T16:16:24.410Z,71.76
2022-10-09T16:18:54.292Z,71.45
2022-10-09T16:21:28.389Z,72.11
2022-10-09T16:23:59.623Z,71.14
2022-10-09T16:26:33.590Z,72.07
2022-10-09T16:29:03.278Z,72.45
2022-10-09T16:31:35.434Z,73.00
2022-10-09T16:34:05.018Z,73.90
2022-10-09T16:36:37.747Z,73.76
2022-10-09T16:39:06.619Z,73.20
2022-10-09T16:41:37.235Z,73.74
2022-10-09T16:44:13.956Z,73.70
2022-10-09T16:46:41.910Z,73.80
2022-10-09T16:49:15.309Z,74.56
2022-10-09T16:51:47.621Z,74.37
2022-10-09T16:54:15.927Z,74.80
2022-10-09T16:56:43.741Z,75.42
2022-10-09T16:59:13.034Z,75.76
2022-10-09T17:01:48.683Z,75.68
2022-10-09T17:04:18.536Z,76.55
2022-10-09T17:06:47.063Z,76.42
2022-10-09T17:09:14.920Z,76.16
2022-10-09T17:11:43.054Z,77.16
2022-10-09T17:14:10.932Z,75.93
2022-10-09T17:16:40.230Z,77.77
2022-10-09T17:19:09.196Z,77.28
2022-10-09T17:21:36.637Z,76.98
2022-10-09T17:24:05.647Z,77.60
2022-10-09T17:26:33.253Z,78.15
2022-10-09T17:29:02.737Z,77.71
2022-10-09T17:31:31.282Z,77.86
2022-10-09T17:34:01.703Z,78.40
2022-10-09T17:36:32.596Z,78.26
2022-10-09T17:39:00.521Z,78.63
2022-10-09T17:41:29.544Z,78.46
2022-10-09T17:43:57.907Z,78.42
2022-10-09T17:46:27.010Z,78.44
2022-10-09T17:48:56.403Z,78.17
2022-10-09T17:51:27.964Z,78.48
2022-10-09T17:56:32.630Z,78.91
2022-10-09T17:59:01.666Z,78.32
2022-10-09T18:01:29.707Z,78.36
2022-10-09T18:03:57.751Z,78.52
2022-10-09T18:06:25.916Z,77.87
2022-10-09T18:08:55.800Z,78.23
2022-10-09T18:11:25.559Z,78.29
2022-10-09T18:13:53.746Z,77.83
2022-10-09T18:16:32.716Z,78.05
2022-10-09T18:19:04.758Z,77.96
2022-10-09T18:21:32.176Z,77.44
2022-10-09T18:23:59.584Z,77.93
2022-10-09T18:26:27.224Z,78.68
2022-10-09T18:28:54.895Z,79.15
2022-10-09T18:31:24.044Z,79.06
2022-10-09T18:33:52.462Z,79.53
2022-10-09T18:36:24.639Z,79.73
2022-10-09T18:38:55.645Z,80.42
2022-10-09T18:41:24.281Z,80.92
2022-10-09T18:43:52.891Z,79.89
2022-10-09T18:46:25.690Z,80.24
2022-10-09T18:48:55.202Z,79.70
2022-10-09T18:51:26.488Z,80.56
2022-10-09T18:53:59.892Z,80.62
2022-10-09T18:56:30.003Z,80.93
2022-10-09T18:59:00.038Z,81.10
2022-10-09T19:01:27.810Z,80.85
2022-10-09T19:03:55.377Z,80.63
2022-10-09T19:06:23.513Z,80.07
2022-10-09T19:08:52.471Z,80.44
2022-10-09T19:11:19.954Z,80.60
2022-10-09T19:13:47.448Z,79.99
2022-10-09T19:16:14.868Z,80.93
2022-10-09T19:18:42.238Z,80.59
2022-10-09T19:21:13.801Z,81.45
2022-10-09T19:23:41.568Z,82.59
2022-10-09T19:26:09.169Z,81.99
2022-10-09T19:28:38.852Z,82.03
2022-10-09T19:31:07.969Z,82.50
2022-10-09T19:33:36.095Z,83.11
2022-10-09T19:36:04.138Z,83.88
2022-10-09T19:38:32.071Z,82.75
2022-10-09T19:41:04.970Z,84.24
2022-10-09T19:43:32.510Z,84.12
2022-10-09T19:46:11.125Z,84.92
2022-10-09T19:48:38.741Z,84.80
2022-10-09T19:51:10.865Z,84.26
2022-10-09T19:53:38.955Z,84.34
2022-10-09T19:56:25.338Z,84.87
2022-10-09T19:58:53.671Z,85.15
2022-10-09T20:01:23.601Z,85.45
2022-10-09T20:03:58.038Z,85.79
2022-10-09T20:06:26.530Z,86.22
2022-10-09T20:08:54.494Z,86.22
2022-10-09T20:11:22.475Z,87.21
2022-10-09T20:13:55.507Z,86.89
2022-10-09T20:16:25.205Z,87.57
2022-10-09T20:18:55.057Z,86.79
2022-10-09T20:21:23.035Z,87.33
2022-10-09T20:23:51.854Z,87.00
2022-10-09T20:26:21.689Z,87.78
2022-10-09T20:28:50.156Z,88.40
2022-10-09T20:31:21.006Z,88.51
2022-10-09T20:33:50.104Z,88.03
2022-10-09T20:36:27.940Z,87.95
2022-10-09T20:38:58.538Z,88.23
2022-10-09T20:41:28.908Z,88.39
2022-10-09T20:43:58.588Z,89.19
2022-10-09T20:46:28.386Z,88.77
2022-10-09T20:48:56.594Z,89.04
2022-10-09T20:51:25.106Z,88.85
2022-10-09T20:53:56.527Z,88.42
2022-10-09T20:56:26.606Z,88.13
2022-10-09T20:58:55.374Z,87.19
2022-10-09T21:01:24.111Z,87.16
2022-10-09T21:03:52.384Z,87.44
2022-10-09T21:06:22.280Z,87.36
2022-10-09T21:08:50.255Z,87.03
2022-10-09T21:11:18.719Z,87.04
2022-10-09T21:13:47.149Z,87.88
2022-10-09T21:16:17.819Z,88.16
2022-10-09T21:18:45.405Z,88.68
2022-10-09T21:21:15.888Z,89.10
2022-10-09T21:23:44.220Z,89.17
2022-10-09T21:26:14.400Z,88.62
2022-10-09T21:28:43.047Z,89.21
2022-10-09T21:31:21.101Z,90.25
2022-10-09T21:33:48.445Z,90.00
2022-10-09T21:39:08.070Z,89.18
2022-10-09T21:41:36.765Z,89.73
2022-10-09T21:44:06.780Z,89.46
2022-10-09T21:46:35.696Z,89.55
2022-10-09T21:49:07.525Z,89.59
2022-10-09T21:51:35.119Z,89.94
2022-10-09T21:54:02.765Z,89.98
2022-10-09T21:56:30.104Z,90.29
2022-10-09T21:58:57.423Z,91.03
2022-10-09T22:01:24.765Z,90.57
2022-10-09T22:03:52.154Z,90.56
2022-10-09T22:06:19.674Z,90.40
2022-10-09T22:08:48.145Z,90.53
2022-10-09T22:11:15.778Z,90.82
2022-10-09T22:13:43.102Z,90.64
2022-10-09T22:16:14.606Z,90.75
2022-10-09T22:18:42.822Z,90.80
2022-10-09T22:21:14.331Z,90.64
2022-10-09T22:23:42.121Z,91.50
2022-10-09T22:26:14.798Z,91.20
2022-10-09T22:28:42.249Z,90.39
2022-10-09T22:31:15.283Z,90.71
2022-10-09T22:33:43.512Z,90.31
2022-10-09T22:36:15.085Z,90.42
2022-10-09T22:38:42.835Z,90.96
2022-10-09T22:41:13.131Z,90.28
2022-10-09T22:43:41.568Z,89.89
2022-10-09T22:46:12.400Z,90.05
2022-10-09T22:48:40.922Z,89.72
2022-10-09T22:51:12.043Z,89.59
2022-10-09T22:53:40.536Z,88.95
2022-10-09T22:56:13.546Z,88.99
2022-10-09T22:58:40.966Z,88.93
2022-10-09T23:01:12.231Z,88.31
2022-10-09T23:03:39.615Z,87.96
2022-10-09T23:06:16.107Z,88.07
2022-10-09T23:08:45.665Z,87.75
2022-10-09T23:11:14.386Z,87.43
2022-10-09T23:13:41.936Z,87.66
2022-10-09T23:16:11.104Z,87.17
2022-10-09T23:18:39.259Z,87.72
2022-10-09T23:21:10.103Z,87.24
2022-10-09T23:23:37.729Z,87.33
2022-10-09T23:26:07.353Z,87.05
2022-10-09T23:28:35.985Z,87.44
2022-10-09T23:31:06.118Z,87.94
2022-10-09T23:33:34.390Z,88.35
2022-10-09T23:36:03.583Z,88.77
2022-10-09T23:38:30.939Z,88.95
2022-10-09T23:41:03.835Z,89.25
2022-10-09T23:43:32.959Z,89.73
2022-10-09T23:46:03.067Z,89.25
2022-10-09T23:48:31.085Z,89.26
2022-10-09T23:50:58.754Z,90.55
2022-10-09T23:53:27.251Z,90.92
2022-10-09T23:55:55.305Z,90.68
2022-10-09T23:58:23.766Z,91.88
